Time;durP1;ratioP1;P1;durP2;ratioP2;P2;SDS_P1;SDS_P2;PMS_P1;PMS_P2;Temp;Humidity;BMP_temperature;BMP_pressure;BME280_temperature;BME280_humidity;BME280_pressure;Samples;Min_cycle;Max_cycle;Signal;HPM_P1;HPM_P2
2022/07/27 00:01:11;;;;;;;2.72;0.88;;;;;;;23.63;44.69;101955.75;5074867;28;20361;-66
2022/07/27 00:03:37;;;;;;;3.13;1.08;;;;;;;23.62;44.60;101957.53;5074255;28;20024;-66
2022/07/27 00:06:02;;;;;;;3.65;0.80;;;;;;;23.60;44.11;101959.50;5073922;28;20028;-66
2022/07/27 00:08:27;;;;;;;3.53;1.20;;;;;;;23.59;44.36;101954.31;5074683;28;20020;-66
2022/07/27 00:10:56;;;;;;;3.03;0.80;;;;;;;23.58;44.08;101952.66;5074455;28;20074;-66
2022/07/27 00:13:21;;;;;;;1.80;0.73;;;;;;;23.57;44.55;101949.13;5073933;28;20074;-66
2022/07/27 00:15:49;;;;;;;1.95;0.80;;;;;;;23.54;44.41;101950.25;5073934;28;20431;-66
2022/07/27 00:18:15;;;;;;;2.72;0.80;;;;;;;23.54;44.64;101947.59;5073942;28;20083;-66
2022/07/27 00:20:40;;;;;;;2.55;0.80;;;;;;;23.52;44.57;101944.19;5073929;28;20028;-66
2022/07/27 00:23:07;;;;;;;2.35;0.80;;;;;;;23.50;44.58;101956.81;5074371;28;20031;-66
2022/07/27 00:25:35;;;;;;;2.28;0.80;;;;;;;23.51;44.26;101957.63;5073216;28;20025;-66
2022/07/27 00:28:01;;;;;;;2.22;0.90;;;;;;;23.49;44.71;101951.63;5074183;28;20028;-65
2022/07/27 00:30:27;;;;;;;1.90;0.90;;;;;;;23.49;44.29;101956.94;5074564;28;20017;-66
2022/07/27 00:32:52;;;;;;;1.88;0.90;;;;;;;23.47;44.44;101951.75;5073386;28;20025;-68
2022/07/27 00:35:18;;;;;;;2.08;0.80;;;;;;;23.47;44.36;101961.56;5074262;28;20115;-66
2022/07/27 00:37:43;;;;;;;2.97;1.00;;;;;;;23.47;44.55;101950.91;5073924;28;20237;-66
2022/07/27 00:40:10;;;;;;;2.10;0.75;;;;;;;23.46;44.43;101957.19;5073360;28;20017;-66
2022/07/27 00:42:35;;;;;;;2.88;0.88;;;;;;;23.44;44.60;101953.84;5073983;28;20028;-66
2022/07/27 00:45:01;;;;;;;2.92;1.10;;;;;;;23.44;44.31;101951.19;5074371;28;20032;-66
2022/07/27 00:47:26;;;;;;;3.53;0.80;;;;;;;23.43;44.21;101944.16;5073209;28;20546;-66
2022/07/27 00:49:52;;;;;;;2.33;0.80;;;;;;;23.40;44.30;101944.44;5073599;28;20388;-66
2022/07/27 00:52:20;;;;;;;2.95;1.00;;;;;;;23.43;44.30;101954.81;5073818;28;20025;-66
2022/07/27 00:54:46;;;;;;;2.92;0.93;;;;;;;23.42;44.51;101956.63;5072497;28;20024;-66
2022/07/27 00:57:13;;;;;;;2.75;0.70;;;;;;;23.40;44.18;101955.94;5073807;28;20029;-66
2022/07/27 00:59:39;;;;;;;2.35;1.10;;;;;;;23.37;44.43;101956.19;5073382;28;20032;-66
2022/07/27 01:02:05;;;;;;;3.10;1.00;;;;;;;23.38;43.92;101949.88;5072948;28;20021;-66
2022/07/27 01:04:31;;;;;;;3.03;0.93;;;;;;;23.38;44.36;101952.53;5073272;28;20028;-66
2022/07/27 01:06:57;;;;;;;2.15;0.90;;;;;;;23.34;44.17;101949.31;5073395;28;20025;-66
2022/07/27 01:12:12;;;;;;;2.47;0.85;;;;;;;23.32;44.29;101948.63;5073894;28;20051;-67
2022/07/27 01:14:37;;;;;;;2.75;0.80;;;;;;;23.33;44.19;101944.97;5071687;28;20041;-67
2022/07/27 01:17:03;;;;;;;2.03;0.82;;;;;;;23.31;44.18;101946.91;5073262;28;20403;-66
2022/07/27 01:19:31;;;;;;;2.88;1.05;;;;;;;23.29;44.11;101943.56;5072833;28;20020;-66
2022/07/27 01:21:57;;;;;;;2.33;0.90;;;;;;;23.29;44.09;101946.22;5072708;28;20028;-66
2022/07/27 01:24:22;;;;;;;3.90;1.05;;;;;;;23.30;44.48;101945.22;5073164;28;20464;-66
2022/07/27 01:26:47;;;;;;;2.40;0.90;;;;;;;23.28;43.97;101949.00;5072960;28;20038;-67
2022/07/27 01:29:13;;;;;;;2.17;0.88;;;;;;;23.27;44.36;101947.31;5072427;28;20284;-66
2022/07/27 01:31:38;;;;;;;2.53;0.90;;;;;;;23.26;44.12;101945.66;5072869;28;20059;-67
2022/07/27 01:34:04;;;;;;;2.42;1.00;;;;;;;23.25;44.46;101951.94;5072835;28;20025;-66
2022/07/27 01:36:29;;;;;;;1.90;0.85;;;;;;;23.25;43.94;101949.28;5072058;28;20032;-66
2022/07/27 01:38:55;;;;;;;3.28;1.05;;;;;;;23.24;44.42;101944.91;5073179;28;20379;-66
2022/07/27 01:41:20;;;;;;;2.75;0.93;;;;;;;23.23;44.27;101951.22;5073028;28;20031;-66
2022/07/27 01:43:46;;;;;;;2.30;0.88;;;;;;;23.21;44.18;101945.19;5071759;28;20473;-66
2022/07/27 01:46:11;;;;;;;2.45;0.80;;;;;;;23.21;44.29;101945.19;5072932;28;20028;-67
2022/07/27 01:48:39;;;;;;;1.92;0.82;;;;;;;23.20;43.94;101948.84;5072551;28;20035;-66
2022/07/27 01:51:04;;;;;;;2.38;0.80;;;;;;;23.18;44.23;101941.81;5072143;28;20379;-66
2022/07/27 01:53:30;;;;;;;1.63;0.82;;;;;;;23.15;43.73;101939.41;5072743;28;20021;-66
2022/07/27 01:55:55;;;;;;;2.95;1.10;;;;;;;23.18;44.30;101940.97;5072827;28;20392;-66
2022/07/27 01:58:23;;;;;;;3.33;0.93;;;;;;;23.14;44.01;101937.72;5071900;28;20025;-67
2022/07/27 02:00:49;;;;;;;2.40;0.80;;;;;;;23.16;44.17;101943.78;5072232;28;20028;-66
2022/07/27 02:03:14;;;;;;;3.33;1.00;;;;;;;23.15;43.78;101942.06;5072454;28;20376;-67
2022/07/27 02:05:40;;;;;;;3.15;1.00;;;;;;;23.15;43.72;101942.06;5072022;28;20067;-66
2022/07/27 02:08:06;;;;;;;2.05;0.80;;;;;;;23.14;43.78;101935.06;5072807;28;20020;-66
2022/07/27 02:10:32;;;;;;;2.88;1.00;;;;;;;23.13;44.22;101938.72;5072243;28;20036;-66
2022/07/27 02:12:58;;;;;;;2.78;0.80;;;;;;;23.10;44.02;101933.66;5071949;28;20016;-66
2022/07/27 02:15:25;;;;;;;3.05;1.00;;;;;;;23.11;44.17;101937.97;5071787;28;20127;-66
2022/07/27 02:17:51;;;;;;;2.97;1.00;;;;;;;23.09;43.87;101929.31;5071373;28;20361;-66
2022/07/27 02:20:21;;;;;;;2.25;0.82;;;;;;;23.11;43.80;101939.81;5072579;28;20027;-66
2022/07/27 02:22:49;;;;;;;3.05;0.98;;;;;;;23.10;43.93;101931.00;5072353;28;20021;-66
2022/07/27 02:25:17;;;;;;;1.85;0.80;;;;;;;23.09;44.08;101928.47;5072698;28;20478;-66
2022/07/27 02:27:44;;;;;;;2.42;0.88;;;;;;;23.07;43.69;101923.25;5076363;28;20063;-66
2022/07/27 02:30:11;;;;;;;2.38;1.00;;;;;;;23.06;44.04;101920.72;5076570;28;20016;-66
2022/07/27 02:32:36;;;;;;;3.22;0.80;;;;;;;23.06;44.16;101929.53;5075462;28;20112;-66
2022/07/27 02:35:04;;;;;;;2.75;0.93;;;;;;;23.06;43.69;101926.88;5076711;28;20056;-66
2022/07/27 02:37:32;;;;;;;2.95;1.00;;;;;;;23.05;43.78;101933.19;5076174;28;20407;-66
2022/07/27 02:39:58;;;;;;;4.32;1.00;;;;;;;23.04;43.58;101925.34;5075619;28;20053;-66
2022/07/27 02:42:26;;;;;;;1.77;0.80;;;;;;;23.03;44.11;101921.81;5076483;28;20052;-66
2022/07/27 02:44:51;;;;;;;3.35;1.00;;;;;;;23.02;43.95;101922.81;5076060;28;20280;-66
2022/07/27 02:47:16;;;;;;;2.10;0.90;;;;;;;23.00;44.16;101922.94;5075351;28;20032;-66
2022/07/27 02:49:44;;;;;;;2.08;0.80;;;;;;;23.01;43.63;101929.09;5076059;28;20276;-66
2022/07/27 02:52:10;;;;;;;2.60;1.00;;;;;;;23.00;44.00;101927.41;5075944;28;20035;-66
2022/07/27 02:54:35;;;;;;;2.23;0.80;;;;;;;22.99;43.95;101923.91;5075068;28;20032;-66
2022/07/27 02:57:03;;;;;;;2.30;0.90;;;;;;;22.99;43.62;101925.72;5075920;28;20308;-66
2022/07/27 02:59:29;;;;;;;1.63;0.80;;;;;;;22.96;44.17;101920.66;5075576;28;20078;-66
2022/07/27 03:01:54;;;;;;;2.50;0.93;;;;;;;22.94;43.70;101915.50;5075428;28;20020;-66
2022/07/27 03:04:40;;;;;;;2.33;0.90;;;;;;;22.96;43.56;101921.50;5076006;28;20036;-66
2022/07/27 03:07:05;;;;;;;2.55;0.90;;;;;;;22.95;43.77;101918.97;5057567;28;20746;-66
2022/07/27 03:09:30;;;;;;;3.70;1.13;;;;;;;22.94;43.93;101926.13;5075500;28;20032;-66
2022/07/27 03:11:55;;;;;;;2.65;1.00;;;;;;;22.95;43.83;101934.94;5075668;28;20027;-66
2022/07/27 03:14:24;;;;;;;3.00;0.90;;;;;;;22.93;43.85;101932.41;5074794;28;20347;-66
2022/07/27 03:16:52;;;;;;;2.47;0.90;;;;;;;22.93;43.81;101936.88;5075182;28;20285;-66
2022/07/27 03:19:18;;;;;;;2.13;0.65;;;;;;;22.93;43.99;101931.56;5075770;28;20095;-66
2022/07/27 03:21:43;;;;;;;4.15;0.95;;;;;;;22.91;43.58;101929.03;5074534;28;20495;-66
2022/07/27 03:24:08;;;;;;;2.20;0.90;;;;;;;22.92;43.51;101932.53;5075514;28;20522;-66
2022/07/27 03:26:36;;;;;;;2.60;1.00;;;;;;;22.90;43.92;101932.66;5075215;28;20471;-66
2022/07/27 03:29:02;;;;;;;2.53;1.00;;;;;;;22.90;43.76;101929.16;5074656;28;20025;-66
2022/07/27 03:31:27;;;;;;;2.40;1.00;;;;;;;22.89;43.55;101933.66;5075632;28;20097;-66
2022/07/27 03:33:56;;;;;;;1.65;0.80;;;;;;;22.90;43.47;101926.50;5075302;28;20090;-66
2022/07/27 03:36:21;;;;;;;3.28;1.00;;;;;;;22.84;43.42;101925.19;5074263;28;20017;-66
2022/07/27 03:38:46;;;;;;;2.13;0.98;;;;;;;22.86;43.28;101928.59;5074476;28;20035;-67
2022/07/27 03:41:12;;;;;;;1.80;0.88;;;;;;;22.86;43.35;101930.38;5074393;28;20040;-66
2022/07/27 03:43:37;;;;;;;2.88;1.08;;;;;;;22.86;43.71;101935.69;5074245;28;20349;-66
2022/07/27 03:46:03;;;;;;;3.05;0.90;;;;;;;22.83;43.25;101927.03;5075234;28;20044;-66
2022/07/27 03:48:28;;;;;;;2.10;0.73;;;;;;;22.85;43.42;101928.72;5074860;28;20031;-66
2022/07/27 03:50:53;;;;;;;2.03;1.00;;;;;;;22.83;43.56;101931.50;5074233;28;20379;-66
2022/07/27 03:53:20;;;;;;;2.60;0.80;;;;;;;22.82;43.64;101943.94;5075048;28;20508;-66
2022/07/27 03:55:49;;;;;;;2.40;1.00;;;;;;;22.80;43.42;101935.25;5074558;28;20272;-66
2022/07/27 03:58:15;;;;;;;1.70;0.82;;;;;;;22.76;43.63;101923.19;5073306;28;20032;-66
2022/07/27 04:00:41;;;;;;;1.90;0.80;;;;;;;22.80;43.70;101937.06;5074569;28;20021;-66
2022/07/27 04:03:07;;;;;;;3.30;1.00;;;;;;;22.79;43.45;101941.53;5074753;28;20036;-67
2022/07/27 04:05:32;;;;;;;2.20;0.83;;;;;;;22.78;43.46;101936.34;5073697;28;20029;-68
2022/07/27 04:07:57;;;;;;;3.20;1.10;;;;;;;22.78;43.53;101942.53;5074638;28;20292;-66
2022/07/27 04:10:23;;;;;;;1.70;0.80;;;;;;;22.78;43.34;101933.69;5073801;28;20265;-66
2022/07/27 04:12:51;;;;;;;2.33;1.00;;;;;;;22.77;43.75;101940.00;5074467;28;20427;-66
2022/07/27 04:15:17;;;;;;;2.60;1.20;;;;;;;22.76;43.80;101940.94;5074483;28;20098;-66
2022/07/27 04:17:43;;;;;;;2.78;1.10;;;;;;;22.77;43.81;101942.66;5073560;28;20521;-66
2022/07/27 04:20:09;;;;;;;3.28;1.10;;;;;;;22.76;43.81;101935.63;5074563;28;20103;-66
2022/07/27 04:22:35;;;;;;;2.55;0.93;;;;;;;22.76;43.96;101938.28;5074277;28;20119;-67
2022/07/27 04:25:00;;;;;;;2.05;0.88;;;;;;;22.72;43.85;101936.88;5073767;28;20078;-66
2022/07/27 04:27:28;;;;;;;2.85;0.93;;;;;;;22.76;43.54;101932.97;5074539;28;20020;-66
2022/07/27 04:29:53;;;;;;;1.83;0.82;;;;;;;22.76;43.60;101941.78;5074417;28;20029;-66
2022/07/27 04:32:24;;;;;;;2.05;0.80;;;;;;;22.76;43.47;101938.28;5073625;28;20023;-66
2022/07/27 04:34:50;;;;;;;1.95;0.90;;;;;;;22.77;43.74;101940.00;5074022;28;20020;-66
2022/07/27 04:37:15;;;;;;;2.80;1.00;;;;;;;22.77;43.89;101943.47;5074245;28;20102;-66
2022/07/27 04:39:40;;;;;;;2.73;1.07;;;;;;;22.76;43.88;101941.78;5072855;28;20376;-66
2022/07/27 04:42:07;;;;;;;1.80;0.80;;;;;;;22.76;43.85;101947.09;5074258;28;20282;-66
2022/07/27 04:44:32;;;;;;;3.47;1.23;;;;;;;22.76;43.96;101943.63;5073802;28;20143;-66
2022/07/27 04:46:57;;;;;;;2.25;0.93;;;;;;;22.77;43.87;101942.66;5073043;28;20464;-66
2022/07/27 04:49:23;;;;;;;2.83;1.00;;;;;;;22.75;43.53;101949.91;5073137;28;20035;-66
2022/07/27 04:51:48;;;;;;;3.10;1.00;;;;;;;22.78;43.63;101946.97;5073542;28;20327;-66
2022/07/27 04:54:13;;;;;;;2.90;1.00;;;;;;;22.78;44.08;101949.63;5072963;28;20390;-66
2022/07/27 04:56:39;;;;;;;2.40;0.90;;;;;;;22.78;43.99;101958.47;5073562;28;20479;-66
2022/07/27 04:59:04;;;;;;;2.03;0.80;;;;;;;22.77;44.02;101958.59;5073829;28;20262;-66
2022/07/27 05:01:29;;;;;;;3.28;1.17;;;;;;;22.77;43.91;101959.44;5072692;28;20027;-65
2022/07/27 05:03:54;;;;;;;5.30;1.10;;;;;;;22.76;44.05;101960.38;5073615;28;20039;-66
2022/07/27 05:06:26;;;;;;;3.22;1.20;;;;;;;22.77;43.89;101964.75;5073664;28;20032;-66
2022/07/27 05:08:51;;;;;;;3.08;1.10;;;;;;;22.73;44.03;101955.34;5072422;28;20107;-66
2022/07/27 05:11:17;;;;;;;2.80;1.03;;;;;;;22.77;43.73;101963.91;5073616;28;20111;-66
2022/07/27 05:13:43;;;;;;;2.70;1.10;;;;;;;22.77;43.74;101961.25;5072376;28;20296;-66
2022/07/27 05:16:09;;;;;;;3.15;1.02;;;;;;;22.77;43.96;101966.56;5073454;28;20032;-66
2022/07/27 05:18:38;;;;;;;2.67;1.02;;;;;;;22.76;43.87;101962.22;5072588;28;20042;-66
2022/07/27 05:21:04;;;;;;;2.70;1.00;;;;;;;22.77;44.07;101964.75;5072534;28;20021;-66
2022/07/27 05:23:29;;;;;;;2.35;0.95;;;;;;;22.78;44.20;101974.41;5073096;28;20078;-66
2022/07/27 05:25:54;;;;;;;3.35;1.10;;;;;;;22.80;43.88;101984.91;5073207;28;20024;-66
2022/07/27 05:28:20;;;;;;;4.13;1.20;;;;;;;22.79;44.27;101986.72;5072641;28;20024;-67
2022/07/27 05:30:45;;;;;;;3.03;1.10;;;;;;;22.80;44.03;101987.56;5072987;28;20085;-66
2022/07/27 05:33:10;;;;;;;2.40;0.95;;;;;;;22.80;44.24;101988.41;5073320;28;20272;-66
2022/07/27 05:35:36;;;;;;;2.57;1.00;;;;;;;22.79;44.27;101986.72;5072163;28;20020;-66
2022/07/27 05:38:01;;;;;;;2.47;0.90;;;;;;;22.80;44.30;101988.41;5073284;28;20772;-66
2022/07/27 05:40:29;;;;;;;3.47;1.17;;;;;;;22.80;44.20;101987.56;5055122;28;20532;-67
2022/07/27 05:42:55;;;;;;;3.47;1.10;;;;;;;22.82;44.32;101986.44;5072147;28;20025;-65
2022/07/27 05:45:21;;;;;;;2.03;0.90;;;;;;;22.81;44.33;101979.47;5072935;28;20027;-66
2022/07/27 05:47:46;;;;;;;3.35;1.10;;;;;;;22.83;44.38;101982.84;5072514;28;20107;-66
2022/07/27 05:50:15;;;;;;;3.17;1.20;;;;;;;22.83;44.50;101982.84;5072083;28;20024;-65
2022/07/27 05:52:42;;;;;;;2.53;1.10;;;;;;;22.85;44.04;101990.69;5072597;28;20479;-65
2022/07/27 05:55:07;;;;;;;3.55;1.02;;;;;;;22.84;44.29;101991.63;5073116;28;20028;-65
2022/07/27 05:57:33;;;;;;;2.78;1.10;;;;;;;22.86;44.50;102002.16;5071832;28;20055;-66
2022/07/27 06:00:00;;;;;;;2.42;0.98;;;;;;;22.86;43.93;101996.81;5072792;28;20070;-65
2022/07/27 06:02:31;;;;;;;2.45;1.00;;;;;;;22.85;44.35;101996.00;5072929;28;20538;-66
2022/07/27 06:04:57;;;;;;;2.55;0.82;;;;;;;22.85;44.56;101988.03;5071763;28;20456;-66
2022/07/27 06:10:16;;;;;;;2.72;1.10;;;;;;;22.89;44.56;101994.78;5072070;28;20112;-66
2022/07/27 06:12:48;;;;;;;2.05;0.90;;;;;;;22.90;44.56;101996.44;5072609;28;20379;-65
2022/07/27 06:15:18;;;;;;;3.40;0.98;;;;;;;22.90;44.07;102001.75;5072444;28;20040;-65
2022/07/27 06:17:45;;;;;;;2.30;0.90;;;;;;;22.91;44.52;102003.47;5071286;28;20111;-66
2022/07/27 06:20:11;;;;;;;3.85;0.90;;;;;;;22.93;44.52;102000.69;5072641;28;20032;-66
2022/07/27 06:22:50;;;;;;;3.92;1.05;;;;;;;22.93;44.56;102000.69;5071974;28;20094;-66
2022/07/27 06:25:16;;;;;;;2.85;0.90;;;;;;;22.93;44.70;101990.88;5071659;28;20392;-67
2022/07/27 06:27:45;;;;;;;4.97;1.02;;;;;;;22.96;44.80;102001.25;5072193;28;20112;-66
2022/07/27 06:30:13;;;;;;;2.15;1.08;;;;;;;22.99;44.48;102002.81;5072369;28;20025;-67
2022/07/27 06:32:38;;;;;;;2.80;1.05;;;;;;;23.00;45.01;101993.84;5071422;28;20158;-67
2022/07/27 06:35:04;;;;;;;2.92;1.15;;;;;;;23.01;44.95;101999.03;5072360;28;20491;-67
2022/07/27 06:37:30;;;;;;;2.83;0.90;;;;;;;23.03;45.36;101996.25;5071861;28;20476;-67
2022/07/27 06:40:02;;;;;;;2.00;0.80;;;;;;;23.05;45.28;102002.31;5071577;28;20077;-67
2022/07/27 06:42:27;;;;;;;3.30;1.27;;;;;;;23.01;42.19;102000.88;5072405;28;20036;-67
2022/07/27 06:44:53;;;;;;;4.40;1.25;;;;;;;22.91;44.33;101999.97;5072160;28;20021;-65
2022/07/27 06:47:24;;;;;;;3.58;0.95;;;;;;;22.91;44.97;101997.31;5071665;28;20048;-65
2022/07/27 06:49:49;;;;;;;2.10;0.90;;;;;;;22.91;45.09;102005.28;5072006;28;20029;-67
2022/07/27 06:52:14;;;;;;;2.43;0.93;;;;;;;22.91;45.06;102005.28;5071303;28;20093;-66
2022/07/27 06:54:42;;;;;;;2.03;0.80;;;;;;;22.92;45.08;101997.19;5071828;28;20280;-65
2022/07/27 06:57:08;;;;;;;2.97;0.90;;;;;;;22.94;45.19;102012.97;5072156;28;20029;-66
2022/07/27 06:59:33;;;;;;;2.22;0.70;;;;;;;22.94;45.42;102007.66;5071188;28;20107;-66
2022/07/27 07:02:01;;;;;;;2.42;0.90;;;;;;;22.95;45.10;102004.03;5072272;28;20027;-66
2022/07/27 07:04:27;;;;;;;2.60;0.80;;;;;;;22.96;44.76;102001.25;5072113;28;20032;-67
2022/07/27 07:06:52;;;;;;;3.47;1.00;;;;;;;22.95;45.02;102006.69;5071015;28;20111;-67
2022/07/27 07:09:18;;;;;;;2.85;1.00;;;;;;;22.99;44.38;102016.94;5072047;28;20036;-66
2022/07/27 07:11:43;;;;;;;2.78;0.90;;;;;;;22.98;43.84;102019.72;5072054;28;20060;-67
2022/07/27 07:14:09;;;;;;;3.83;0.97;;;;;;;22.98;44.33;102023.22;5074857;28;20436;-68
2022/07/27 07:16:35;;;;;;;3.30;0.90;;;;;;;23.01;44.89;102027.44;5075334;28;20894;-68
2022/07/27 07:19:00;;;;;;;2.45;0.90;;;;;;;23.03;45.11;102017.53;5075783;28;20052;-68
2022/07/27 07:21:25;;;;;;;2.13;0.87;;;;;;;23.07;45.07;102021.63;5074903;28;20498;-72
2022/07/27 07:23:51;;;;;;;3.35;0.90;;;;;;;23.10;44.95;102015.25;5075273;28;20318;-65
2022/07/27 07:26:16;;;;;;;3.50;1.00;;;;;;;23.11;45.10;102019.56;5075343;28;20420;-69
2022/07/27 07:28:42;;;;;;;2.33;0.90;;;;;;;23.13;44.73;102014.97;5074202;28;20021;-69
2022/07/27 07:31:08;;;;;;;3.05;1.00;;;;;;;23.15;44.97;102019.19;5075433;28;20029;-69
2022/07/27 07:33:36;;;;;;;2.20;0.88;;;;;;;23.15;44.37;102019.19;5074874;28;20031;-69
2022/07/27 07:36:01;;;;;;;2.95;0.90;;;;;;;23.17;44.44;102017.22;5074412;28;20465;-69
2022/07/27 07:38:27;;;;;;;1.88;0.80;;;;;;;23.17;44.38;102021.72;5074385;28;20119;-72
2022/07/27 07:40:52;;;;;;;5.00;0.90;;;;;;;23.11;41.74;102022.22;5074958;28;20373;-68
2022/07/27 07:43:17;;;;;;;3.37;1.00;;;;;;;22.96;41.81;102019.84;5074575;28;20029;-68
2022/07/27 07:45:43;;;;;;;3.83;0.90;;;;;;;22.92;43.90;102026.41;5074648;28;20771;-66
2022/07/27 07:48:10;;;;;;;2.42;0.80;;;;;;;22.93;44.26;102027.25;5075125;28;20024;-67
2022/07/27 07:50:38;;;;;;;2.08;0.90;;;;;;;22.94;44.79;102027.13;5074024;28;20476;-67
2022/07/27 07:53:03;;;;;;;3.30;1.00;;;;;;;23.02;44.71;102029.16;5075035;28;20052;-67
2022/07/27 07:55:29;;;;;;;3.58;0.90;;;;;;;23.06;44.56;102027.91;5073808;28;20047;-67
2022/07/27 07:57:55;;;;;;;4.95;0.88;;;;;;;23.08;44.22;102027.81;5075378;28;20503;-67
2022/07/27 08:00:21;;;;;;;2.90;1.05;;;;;;;23.10;44.54;102026.72;5074273;28;20038;-67
2022/07/27 08:02:56;;;;;;;3.08;1.00;;;;;;;23.12;44.73;102022.09;5073941;28;20058;-67
2022/07/27 08:05:22;;;;;;;2.33;0.70;;;;;;;23.15;44.40;102031.66;5074779;28;20480;-67
2022/07/27 08:07:48;;;;;;;2.17;0.90;;;;;;;23.17;44.18;102037.69;5074574;28;20069;-67
2022/07/27 08:10:19;;;;;;;3.10;0.88;;;;;;;23.19;44.51;102041.03;5074103;28;20021;-66
2022/07/27 08:12:48;;;;;;;3.30;0.80;;;;;;;23.19;44.54;102041.03;5074760;28;20020;-66
2022/07/27 08:15:16;;;;;;;2.03;0.80;;;;;;;23.21;44.91;102044.44;5074567;28;20045;-67
2022/07/27 08:17:42;;;;;;;2.13;0.88;;;;;;;23.21;44.21;102047.09;5073729;28;20495;-67
2022/07/27 08:20:08;;;;;;;2.42;1.10;;;;;;;23.21;44.01;102048.88;5074539;28;20028;-68
2022/07/27 08:22:34;;;;;;;2.40;0.82;;;;;;;23.19;44.11;102043.69;5073924;28;20035;-69
2022/07/27 08:25:00;;;;;;;1.60;0.82;;;;;;;23.18;44.35;102042.88;5073591;28;20020;-69
2022/07/27 08:27:25;;;;;;;3.35;1.00;;;;;;;23.17;44.56;102046.47;5074167;28;20488;-69
2022/07/27 08:29:50;;;;;;;3.00;1.10;;;;;;;23.17;43.90;102040.34;5073777;28;20017;-69
2022/07/27 08:32:16;;;;;;;3.60;0.90;;;;;;;23.16;44.62;102039.50;5073875;28;20028;-69
2022/07/27 08:34:41;;;;;;;4.57;0.85;;;;;;;23.18;44.30;102036.72;5073895;28;20747;-69
2022/07/27 08:37:09;;;;;;;2.10;1.05;;;;;;;23.16;44.64;102039.50;5073959;28;20029;-69
2022/07/27 08:39:37;;;;;;;1.40;0.70;;;;;;;23.18;44.29;102042.03;5073299;28;20383;-68
2022/07/27 08:42:08;;;;;;;2.75;1.05;;;;;;;23.17;44.18;102027.03;5074421;28;20063;-69
2022/07/27 08:44:40;;;;;;;1.90;0.75;;;;;;;23.20;44.50;102036.59;5074359;28;20032;-68
2022/07/27 08:47:07;;;;;;;2.35;0.80;;;;;;;23.21;44.22;102027.63;5074163;28;20154;-68
2022/07/27 08:49:33;;;;;;;3.15;1.08;;;;;;;23.20;44.46;102031.25;5073655;28;20028;-68
2022/07/27 08:52:00;;;;;;;2.17;0.75;;;;;;;23.21;44.15;102030.28;5073501;28;20147;-67
2022/07/27 08:54:25;;;;;;;2.92;0.80;;;;;;;23.21;44.05;102030.28;5074409;28;20045;-69
2022/07/27 08:56:51;;;;;;;3.25;0.82;;;;;;;23.24;43.89;102032.66;5073780;28;20122;-68
2022/07/27 08:59:16;;;;;;;2.80;0.90;;;;;;;23.25;43.87;102037.03;5073343;28;20029;-68
2022/07/27 09:01:42;;;;;;;2.73;0.80;;;;;;;23.25;43.55;102029.88;5073943;28;20158;-68
2022/07/27 09:04:08;;;;;;;2.63;0.80;;;;;;;23.26;43.92;102034.25;5076182;28;20667;-73
2022/07/27 09:06:49;;;;;;;1.58;0.70;;;;;;;23.29;43.86;102041.09;5074050;28;20068;-70
2022/07/27 09:09:18;;;;;;;3.05;0.88;;;;;;;23.29;43.08;102041.09;5074077;28;20547;-68
2022/07/27 09:11:43;;;;;;;2.45;0.70;;;;;;;23.29;43.08;102041.97;5072677;28;20044;-69
2022/07/27 09:14:13;;;;;;;2.38;0.70;;;;;;;23.32;43.29;102040.84;5072990;28;20044;-70
2022/07/27 09:16:38;;;;;;;2.10;0.80;;;;;;;23.32;42.94;102047.03;5073701;28;20033;-70
2022/07/27 09:19:13;;;;;;;2.33;0.90;;;;;;;23.31;42.87;102037.34;5074300;28;20471;-69
2022/07/27 09:21:41;;;;;;;2.35;0.70;;;;;;;23.32;42.88;102033.72;5074994;28;20269;-71
2022/07/27 09:24:15;;;;;;;2.38;0.90;;;;;;;23.35;43.02;102049.44;5074720;28;20028;-68
2022/07/27 09:26:41;;;;;;;2.80;0.98;;;;;;;23.36;42.67;102047.59;5074694;28;20468;-68
2022/07/27 09:29:09;;;;;;;1.10;0.70;;;;;;;23.36;42.96;102052.91;5075146;28;20032;-68
2022/07/27 09:31:43;;;;;;;2.38;0.70;;;;;;;23.37;42.92;102051.94;5077574;28;20059;-68
2022/07/27 09:34:09;;;;;;;2.35;0.90;;;;;;;23.36;42.79;102047.59;5076258;28;20039;-68
2022/07/27 09:36:59;;;;;;;2.55;0.80;;;;;;;23.35;42.80;102046.75;5074173;28;20051;-69
2022/07/27 09:39:26;;;;;;;1.90;0.70;;;;;;;23.36;42.93;102044.94;5074209;28;20028;-68
2022/07/27 09:41:58;;;;;;;3.17;1.00;;;;;;;23.36;43.27;102040.44;5074355;28;20035;-69
2022/07/27 09:44:34;;;;;;;1.83;0.73;;;;;;;23.37;43.30;102046.63;5075304;28;20074;-68
2022/07/27 09:47:00;;;;;;;3.13;1.00;;;;;;;23.39;43.30;102050.00;5075438;28;20063;-68
2022/07/27 09:49:33;;;;;;;2.55;0.77;;;;;;;23.40;43.14;102042.84;5074072;28;20044;-67
2022/07/27 09:52:00;;;;;;;1.58;0.65;;;;;;;23.41;43.19;102050.69;5077233;28;20020;-67
2022/07/27 09:54:25;;;;;;;1.67;0.77;;;;;;;23.39;42.87;102047.34;5074231;28;20150;-68
2022/07/27 09:57:03;;;;;;;4.03;0.90;;;;;;;23.36;42.97;102043.09;5073056;28;20036;-67
2022/07/27 09:59:29;;;;;;;2.38;0.85;;;;;;;23.38;43.15;102042.16;5074081;28;20036;-67
2022/07/27 10:01:55;;;;;;;2.92;0.80;;;;;;;23.36;42.45;102044.94;5079482;28;20108;-68
2022/07/27 10:04:22;;;;;;;1.90;0.70;;;;;;;23.34;43.06;102041.56;5073091;28;20024;-68
2022/07/27 10:06:48;;;;;;;3.33;0.77;;;;;;;23.35;43.28;102048.56;5073862;28;20073;-67
2022/07/27 10:09:13;;;;;;;2.72;0.90;;;;;;;23.38;43.60;102048.31;5072525;28;20107;-67
2022/07/27 10:11:39;;;;;;;1.67;0.70;;;;;;;23.39;43.64;102050.00;5074734;28;20113;-68
2022/07/27 10:14:05;;;;;;;6.50;1.17;;;;;;;23.33;41.50;102046.03;5074270;28;20049;-72
2022/07/27 10:16:34;;;;;;;4.97;0.85;;;;;;;23.32;41.76;102046.16;5072053;28;20041;-72
2022/07/27 10:19:13;;;;;;;4.18;0.77;;;;;;;23.33;42.75;102039.88;5073118;28;20074;-68
2022/07/27 10:21:42;;;;;;;2.53;0.80;;;;;;;23.36;42.80;102043.09;5072497;28;20035;-70
2022/07/27 10:24:23;;;;;;;3.70;0.80;;;;;;;23.46;42.94;102034.34;5071913;28;20047;-68
2022/07/27 10:26:48;;;;;;;7.60;1.20;;;;;;;23.54;42.72;102038.06;5072411;28;20044;-70
2022/07/27 10:29:13;;;;;;;3.33;0.90;;;;;;;23.62;43.16;102037.38;5072646;28;20021;-69
2022/07/27 10:31:41;;;;;;;4.93;1.10;;;;;;;23.61;38.87;102032.22;5071405;28;20438;-71
2022/07/27 10:34:08;;;;;;;2.42;0.70;;;;;;;23.54;38.66;102032.75;5072568;28;20028;-70
2022/07/27 10:36:34;;;;;;;3.78;1.23;;;;;;;23.48;39.13;102032.41;5073732;28;20039;-70
2022/07/27 10:39:06;;;;;;;5.37;1.00;;;;;;;23.46;39.95;102027.19;5071948;28;20024;-70
2022/07/27 10:41:38;;;;;;;2.85;0.85;;;;;;;23.52;40.84;102017.88;5072123;28;20043;-72
2022/07/27 10:44:26;;;;;;;2.95;0.95;;;;;;;23.61;41.06;102018.91;5072378;28;20028;-72
2022/07/27 10:47:01;;;;;;;3.05;1.00;;;;;;;23.68;41.01;102018.22;5072482;28;20043;-70
2022/07/27 10:49:29;;;;;;;2.67;0.90;;;;;;;23.76;40.81;102016.72;5076495;28;20032;-71
2022/07/27 10:51:56;;;;;;;3.22;0.70;;;;;;;23.79;40.86;102011.97;5075442;28;20052;-72
2022/07/27 10:54:48;;;;;;;3.03;0.80;;;;;;;23.81;40.59;102009.16;5076317;28;20472;-74
2022/07/27 10:57:35;;;;;;;3.33;1.10;;;;;;;23.82;40.76;102010.88;5071381;28;20508;-66
2022/07/27 11:00:08;;;;;;;2.90;0.90;;;;;;;23.82;40.93;102013.53;5075330;28;20408;-67
2022/07/27 11:02:39;;;;;;;3.35;1.05;;;;;;;23.79;39.91;102005.81;5075931;28;20029;-66
2022/07/27 11:05:05;;;;;;;3.90;0.90;;;;;;;23.77;40.96;102008.59;5075750;28;20027;-66
2022/07/27 11:07:30;;;;;;;2.47;0.88;;;;;;;23.77;41.11;102013.09;5075012;28;20016;-65
2022/07/27 11:09:59;;;;;;;1.90;0.75;;;;;;;23.75;41.34;102007.91;5076015;28;20376;-65
2022/07/27 11:12:28;;;;;;;1.77;0.70;;;;;;;23.75;41.15;102007.91;5075135;28;20086;-65
2022/07/27 11:14:55;;;;;;;1.88;0.85;;;;;;;23.77;41.01;102010.44;5075543;28;20045;-65
2022/07/27 11:17:28;;;;;;;2.70;0.90;;;;;;;23.75;41.10;102013.22;5075506;28;20037;-65
2022/07/27 11:20:01;;;;;;;2.63;1.00;;;;;;;23.75;41.23;102013.22;5075199;28;20035;-65
2022/07/27 11:22:38;;;;;;;1.25;0.75;;;;;;;23.75;41.23;102007.03;5075788;28;20078;-65
2022/07/27 11:25:07;;;;;;;4.40;1.10;;;;;;;23.75;41.35;102007.03;5075702;28;20025;-65
2022/07/27 11:27:50;;;;;;;3.70;0.90;;;;;;;23.75;41.53;102007.91;5074487;28;20495;-66
2022/07/27 11:30:27;;;;;;;3.38;1.02;;;;;;;23.76;41.42;102008.72;5075498;28;20052;-65